Time;durP1;ratioP1;P1;durP2;ratioP2;P2;SDS_P1;SDS_P2;PMS_P1;PMS_P2;Temp;Humidity;BMP_temperature;BMP_pressure;BME280_temperature;BME280_humidity;BME280_pressure;Samples;Min_cycle;Max_cycle;Signal;HPM_P1;HPM_P2
2023/08/01 00:02:10;;;;;;;9.63;8.73;;;;;;;19.51;100.00;-18551.88;5091008;28;20032;-77
2023/08/01 00:04:35;;;;;;;8.20;7.50;;;;;;;19.42;100.00;-18549.28;5090381;28;20112;-78
2023/08/01 00:07:00;;;;;;;9.40;8.50;;;;;;;19.58;100.00;-18553.66;5087233;28;20822;-77
2023/08/01 00:09:26;;;;;;;9.32;8.35;;;;;;;19.57;100.00;-18553.50;5091483;28;20123;-77
2023/08/01 00:11:51;;;;;;;8.80;8.00;;;;;;;19.39;100.00;-18548.59;5088795;28;20042;-77
2023/08/01 00:14:17;;;;;;;9.93;9.05;;;;;;;19.37;100.00;-18548.19;5090295;28;20039;-77
2023/08/01 00:16:42;;;;;;;9.50;8.60;;;;;;;19.42;100.00;-18549.44;5091848;28;20043;-77
2023/08/01 00:19:08;;;;;;;8.85;8.05;;;;;;;19.45;100.00;-18550.25;5088727;28;20047;-78
2023/08/01 00:21:33;;;;;;;9.07;8.18;;;;;;;19.49;100.00;-18551.34;5082674;28;20040;-78
2023/08/01 00:23:58;;;;;;;9.00;8.20;;;;;;;19.44;100.00;-18549.97;5086909;28;20043;-78
2023/08/01 00:26:24;;;;;;;9.80;8.80;;;;;;;19.93;100.00;-18563.06;5085461;28;20047;-77
2023/08/01 00:28:49;;;;;;;10.70;9.60;;;;;;;19.86;100.00;-18561.00;5092145;28;20539;-78
2023/08/01 00:31:14;;;;;;;9.98;8.95;;;;;;;19.71;100.00;-18557.19;5089413;28;20134;-77
2023/08/01 00:33:40;;;;;;;9.80;8.80;;;;;;;19.67;100.00;-18555.97;5072512;28;20043;-77
2023/08/01 00:36:09;;;;;;;9.90;9.00;;;;;;;19.63;100.00;-18554.88;5089801;28;20066;-77
2023/08/01 00:38:36;;;;;;;11.65;9.63;;;;;;;19.80;100.00;-18559.50;5091743;28;20036;-77
2023/08/01 00:41:01;;;;;;;10.25;9.15;;;;;;;19.92;100.00;-18562.66;5071703;28;20039;-76
2023/08/01 00:43:27;;;;;;;10.57;9.57;;;;;;;20.02;100.00;-18565.38;5089705;28;20070;-76
2023/08/01 00:45:59;;;;;;;10.43;9.40;;;;;;;19.90;100.00;-18562.22;5088318;28;20727;-77
2023/08/01 00:48:24;;;;;;;10.23;8.95;;;;;;;19.84;100.00;-18560.59;5089065;28;20031;-76
2023/08/01 00:50:50;;;;;;;10.70;9.70;;;;;;;19.77;100.00;-18558.69;5087830;28;20597;-78
2023/08/01 00:53:17;;;;;;;10.63;9.52;;;;;;;19.92;100.00;-18562.78;5085691;28;20051;-77
2023/08/01 00:55:43;;;;;;;10.50;9.43;;;;;;;19.86;100.00;-18561.16;5091022;28;20032;-77
2023/08/01 00:58:09;;;;;;;11.32;10.10;;;;;;;19.72;100.00;-18557.34;5090909;28;20067;-77
2023/08/01 01:00:34;;;;;;;10.48;8.77;;;;;;;19.63;100.00;-18555.00;5089266;28;20130;-77
2023/08/01 01:03:00;;;;;;;10.63;9.27;;;;;;;19.61;100.00;-18554.59;5086695;28;20043;-77
2023/08/01 01:05:31;;;;;;;9.98;8.98;;;;;;;19.70;100.00;-18556.78;5088527;28;20043;-77
2023/08/01 01:07:57;;;;;;;14.20;12.18;;;;;;;19.79;100.00;-18559.38;5084485;28;20751;-77
2023/08/01 01:10:22;;;;;;;12.20;10.13;;;;;;;19.90;100.00;-18562.22;5083959;28;20062;-77
2023/08/01 01:12:49;;;;;;;12.15;10.18;;;;;;;19.95;100.00;-18563.59;5086359;28;20082;-77
2023/08/01 01:15:15;;;;;;;11.57;9.98;;;;;;;19.73;100.00;-18557.75;5090409;28;20073;-77
2023/08/01 01:17:40;;;;;;;14.63;12.00;;;;;;;19.65;100.00;-18555.41;5086826;28;20047;-77
2023/08/01 01:20:06;;;;;;;15.15;12.07;;;;;;;19.72;100.00;-18557.34;5087099;28;20054;-77
2023/08/01 01:22:32;;;;;;;19.48;12.27;;;;;;;19.80;100.00;-18559.66;5088874;28;20047;-76
2023/08/01 01:25:00;;;;;;;16.67;12.52;;;;;;;19.76;100.00;-18558.41;5092172;28;20637;-76
2023/08/01 01:27:27;;;;;;;20.90;13.80;;;;;;;19.64;100.00;-18555.28;5091919;28;20717;-74
2023/08/01 01:29:54;;;;;;;14.02;11.80;;;;;;;19.51;100.00;-18551.88;5092296;28;20134;-76
2023/08/01 01:32:20;;;;;;;17.60;14.00;;;;;;;19.50;100.00;-18551.59;5090446;28;20048;-77
2023/08/01 01:34:46;;;;;;;16.48;13.77;;;;;;;19.55;100.00;-18552.97;5092067;28;20059;-75
2023/08/01 01:37:11;;;;;;;16.52;13.45;;;;;;;19.65;100.00;-18555.41;5075933;28;20164;-75
2023/08/01 01:39:36;;;;;;;17.55;12.68;;;;;;;19.50;100.00;-18551.59;5089805;28;20048;-76
2023/08/01 01:42:02;;;;;;;18.25;14.23;;;;;;;19.65;100.00;-18555.41;5093054;28;20055;-77
2023/08/01 01:44:27;;;;;;;19.10;14.88;;;;;;;19.60;100.00;-18554.34;5078818;28;20048;-76
2023/08/01 01:46:53;;;;;;;16.77;13.63;;;;;;;19.56;100.00;-18553.09;5091724;28;20101;-77
2023/08/01 01:49:18;;;;;;;18.80;15.10;;;;;;;19.54;100.00;-18552.56;5092712;28;20695;-75
2023/08/01 01:51:44;;;;;;;17.10;13.52;;;;;;;19.45;100.00;-18550.25;5094381;28;20094;-76
2023/08/01 01:54:09;;;;;;;20.63;13.55;;;;;;;19.56;100.00;-18553.25;5095575;28;20124;-75
2023/08/01 01:56:35;;;;;;;19.65;14.30;;;;;;;19.57;100.00;-18553.50;5095042;28;20051;-75
2023/08/01 01:59:01;;;;;;;17.58;13.27;;;;;;;19.63;100.00;-18555.00;5096698;28;20050;-77
2023/08/01 02:01:26;;;;;;;17.08;14.48;;;;;;;19.66;100.00;-18555.84;5094170;28;20039;-77
2023/08/01 02:03:51;;;;;;;19.75;13.23;;;;;;;19.61;100.00;-18554.59;5094967;28;20067;-76
2023/08/01 02:06:17;;;;;;;19.75;14.50;;;;;;;19.53;100.00;-18552.44;5095692;28;20035;-77
2023/08/01 02:08:42;;;;;;;20.25;13.68;;;;;;;19.61;100.00;-18554.59;5093602;28;20039;-77
2023/08/01 02:11:08;;;;;;;17.20;14.10;;;;;;;19.43;100.00;-18549.56;5094934;28;20036;-77
2023/08/01 02:13:34;;;;;;;19.15;13.13;;;;;;;19.28;100.00;-18545.63;5094093;28;20089;-74
2023/08/01 02:16:00;;;;;;;20.00;14.45;;;;;;;19.38;100.00;-18548.47;5094918;28;20039;-75
2023/08/01 02:18:25;;;;;;;16.88;12.30;;;;;;;19.27;100.00;-18545.47;5094930;28;21119;-76
2023/08/01 02:20:50;;;;;;;17.63;12.80;;;;;;;19.27;100.00;-18545.47;5096880;28;20642;-78
2023/08/01 02:23:16;;;;;;;15.40;11.70;;;;;;;19.21;100.00;-18543.72;5089960;28;20528;-77
2023/08/01 02:25:41;;;;;;;14.23;12.32;;;;;;;19.26;100.00;-18545.06;5091456;28;20724;-77
2023/08/01 02:28:07;;;;;;;15.27;11.88;;;;;;;19.24;100.00;-18544.66;5082062;28;20043;-76
2023/08/01 02:30:36;;;;;;;17.77;12.18;;;;;;;19.16;100.00;-18542.63;5094537;28;20540;-75
2023/08/01 02:33:01;;;;;;;16.42;11.88;;;;;;;19.17;100.00;-18542.88;5092421;28;20046;-76
2023/08/01 02:35:28;;;;;;;14.80;10.55;;;;;;;19.05;100.00;-18539.63;5092238;28;20036;-75
2023/08/01 02:37:53;;;;;;;16.38;11.68;;;;;;;19.08;100.00;-18540.44;5087185;28;20196;-76
2023/08/01 02:40:19;;;;;;;15.85;10.30;;;;;;;19.05;100.00;-18539.63;5094249;28;20043;-77
2023/08/01 02:42:44;;;;;;;14.70;10.93;;;;;;;19.05;100.00;-18539.63;5076680;28;20131;-75
2023/08/01 02:45:09;;;;;;;18.65;12.25;;;;;;;19.03;100.00;-18539.06;5091964;28;20724;-76
2023/08/01 02:47:35;;;;;;;16.63;11.88;;;;;;;19.08;100.00;-18540.44;5095713;28;20036;-75
2023/08/01 02:50:00;;;;;;;14.55;12.05;;;;;;;19.04;100.00;-18539.22;5090081;28;20049;-76
2023/08/01 02:52:25;;;;;;;16.75;12.80;;;;;;;19.17;100.00;-18542.75;5095294;28;20032;-75
2023/08/01 02:54:51;;;;;;;16.10;11.90;;;;;;;19.10;100.00;-18540.97;5092692;28;20126;-77
2023/08/01 02:57:16;;;;;;;21.17;13.20;;;;;;;19.19;100.00;-18543.16;5093474;28;20742;-76
2023/08/01 02:59:41;;;;;;;14.23;11.77;;;;;;;19.11;100.00;-18541.25;5094615;28;20062;-75
2023/08/01 03:02:07;;;;;;;16.55;11.98;;;;;;;19.13;100.00;-18541.81;5094959;28;20035;-77
2023/08/01 03:04:32;;;;;;;16.10;10.68;;;;;;;19.08;100.00;-18540.44;5091645;28;20044;-76
2023/08/01 03:06:57;;;;;;;14.52;10.55;;;;;;;19.16;100.00;-18542.63;5093495;28;20108;-78
2023/08/01 03:09:23;;;;;;;13.95;9.55;;;;;;;19.09;100.00;-18540.72;5094956;28;20216;-75
2023/08/01 03:11:48;;;;;;;18.98;11.30;;;;;;;19.19;100.00;-18543.16;5071062;28;20267;-78
2023/08/01 03:14:13;;;;;;;18.42;11.60;;;;;;;19.19;100.00;-18543.16;5091674;28;20099;-77
2023/08/01 03:16:39;;;;;;;18.17;11.15;;;;;;;19.13;100.00;-18541.81;5095906;28;20032;-77
2023/08/01 03:19:04;;;;;;;14.00;11.70;;;;;;;19.13;100.00;-18541.81;5093547;28;20031;-78
2023/08/01 03:21:33;;;;;;;13.88;11.18;;;;;;;19.17;100.00;-18542.88;5091240;28;20964;-77
2023/08/01 03:24:00;;;;;;;18.25;10.77;;;;;;;19.09;100.00;-18540.72;5091497;28;20047;-75
2023/08/01 03:26:28;;;;;;;17.48;12.98;;;;;;;19.15;100.00;-18542.22;5074296;28;20040;-76
2023/08/01 03:28:54;;;;;;;16.75;11.35;;;;;;;19.21;100.00;-18543.84;5095583;28;20276;-75
2023/08/01 03:31:19;;;;;;;15.52;9.75;;;;;;;19.09;100.00;-18540.72;5093819;28;20039;-75
2023/08/01 03:33:45;;;;;;;16.75;12.15;;;;;;;19.07;100.00;-18540.03;5093100;28;20551;-75
2023/08/01 03:36:10;;;;;;;16.35;11.13;;;;;;;19.14;100.00;-18541.94;5093990;28;20031;-76
2023/08/01 03:38:35;;;;;;;19.33;11.68;;;;;;;19.10;100.00;-18540.97;5064900;28;20056;-76
2023/08/01 03:41:01;;;;;;;17.45;11.75;;;;;;;19.14;100.00;-18542.06;5087137;28;20762;-76
2023/08/01 03:43:26;;;;;;;15.52;11.65;;;;;;;19.12;100.00;-18541.38;5093182;28;20539;-75
2023/08/01 03:45:52;;;;;;;16.80;11.13;;;;;;;19.11;100.00;-18541.25;5094738;28;20039;-75
2023/08/01 03:48:17;;;;;;;17.70;11.13;;;;;;;18.93;100.00;-18536.34;5091565;28;20358;-74
2023/08/01 03:50:42;;;;;;;18.05;11.23;;;;;;;18.86;100.00;-18534.44;5091265;28;20047;-74
2023/08/01 03:53:08;;;;;;;18.00;11.68;;;;;;;18.89;100.00;-18535.25;5090990;28;20047;-75
2023/08/01 03:55:33;;;;;;;18.73;13.13;;;;;;;18.90;100.00;-18535.53;5086773;28;20039;-76
2023/08/01 03:57:58;;;;;;;16.70;11.52;;;;;;;18.96;100.00;-18537.03;5093965;28;20039;-75
2023/08/01 04:00:24;;;;;;;18.35;10.65;;;;;;;18.86;100.00;-18534.44;5091119;28;20293;-74
2023/08/01 04:02:49;;;;;;;18.92;12.23;;;;;;;18.91;100.00;-18535.94;5095005;28;20039;-76
2023/08/01 04:05:15;;;;;;;16.42;12.23;;;;;;;18.80;100.00;-18532.94;5093930;28;20554;-75
2023/08/01 04:07:41;;;;;;;22.38;13.25;;;;;;;18.72;100.00;-18530.88;5091802;28;20071;-75
2023/08/01 04:10:07;;;;;;;20.95;13.68;;;;;;;18.89;100.00;-18535.41;5091487;28;20104;-75
2023/08/01 04:12:33;;;;;;;18.90;13.90;;;;;;;18.93;100.00;-18536.34;5091003;28;20047;-77
2023/08/01 04:14:59;;;;;;;26.23;14.38;;;;;;;18.90;100.00;-18535.53;5075635;28;20350;-75
2023/08/01 04:17:24;;;;;;;23.40;15.80;;;;;;;18.94;100.00;-18536.75;5093130;28;20036;-75
2023/08/01 04:19:50;;;;;;;26.33;15.23;;;;;;;18.85;100.00;-18534.16;5092866;28;20040;-75
2023/08/01 04:22:15;;;;;;;26.23;16.15;;;;;;;18.85;100.00;-18534.16;5089056;28;20043;-76
2023/08/01 04:24:41;;;;;;;24.35;15.82;;;;;;;18.91;100.00;-18535.94;5085827;28;20071;-75
2023/08/01 04:27:06;;;;;;;25.45;15.85;;;;;;;19.05;100.00;-18539.63;5092348;28;20042;-74
2023/08/01 04:29:32;;;;;;;23.65;15.80;;;;;;;19.05;100.00;-18539.50;5093226;28;20208;-75
2023/08/01 04:31:57;;;;;;;24.80;17.08;;;;;;;18.99;100.00;-18538.00;5092300;28;20039;-75
2023/08/01 04:34:23;;;;;;;25.60;17.95;;;;;;;19.19;100.00;-18543.31;5091573;28;20152;-75
2023/08/01 04:36:48;;;;;;;28.45;18.38;;;;;;;18.98;100.00;-18537.56;5093315;28;20129;-75
2023/08/01 04:39:13;;;;;;;26.13;15.18;;;;;;;18.93;100.00;-18536.50;5085689;28;20116;-76
2023/08/01 04:41:39;;;;;;;26.80;16.85;;;;;;;18.83;100.00;-18533.63;5094227;28;20040;-76
2023/08/01 04:44:04;;;;;;;22.42;15.57;;;;;;;19.06;100.00;-18539.91;5092224;28;20080;-75
2023/08/01 04:46:30;;;;;;;32.00;16.60;;;;;;;18.87;100.00;-18534.84;5091979;28;20047;-75
2023/08/01 04:48:55;;;;;;;24.05;16.83;;;;;;;19.00;100.00;-18538.25;5075854;28;20032;-75
2023/08/01 04:51:20;;;;;;;25.33;16.33;;;;;;;18.90;100.00;-18535.53;5091382;28;20313;-74
2023/08/01 04:53:46;;;;;;;27.20;16.10;;;;;;;18.92;100.00;-18536.22;5087082;28;20488;-76
2023/08/01 04:56:11;;;;;;;24.52;16.77;;;;;;;19.03;100.00;-18539.06;5086513;28;20134;-75
2023/08/01 04:58:36;;;;;;;27.08;18.23;;;;;;;19.03;100.00;-18538.94;5085064;28;20048;-75
2023/08/01 05:01:02;;;;;;;23.75;16.83;;;;;;;18.94;100.00;-18536.75;5090312;28;20047;-76
2023/08/01 05:03:27;;;;;;;26.60;16.65;;;;;;;18.88;100.00;-18535.00;5091226;28;20036;-75
2023/08/01 05:05:52;;;;;;;23.05;16.25;;;;;;;18.90;100.00;-18535.53;5093463;28;20062;-76
2023/08/01 05:08:18;;;;;;;23.60;18.02;;;;;;;18.89;100.00;-18535.41;5089930;28;20086;-75
2023/08/01 05:10:43;;;;;;;23.23;15.40;;;;;;;18.85;100.00;-18534.16;5092785;28;20048;-74
2023/08/01 05:13:08;;;;;;;25.88;17.13;;;;;;;18.85;100.00;-18534.16;5092064;28;20048;-76
2023/08/01 05:15:34;;;;;;;28.90;20.27;;;;;;;19.05;100.00;-18539.50;5072451;28;20036;-75
2023/08/01 05:17:59;;;;;;;19.25;15.50;;;;;;;18.90;100.00;-18535.53;5083307;28;20036;-75
2023/08/01 05:20:30;;;;;;;21.73;16.27;;;;;;;18.99;100.00;-18537.84;5087993;28;20051;-75
2023/08/01 05:22:56;;;;;;;17.73;13.80;;;;;;;18.85;100.00;-18534.16;5091696;28;20146;-76
2023/08/01 05:25:22;;;;;;;16.77;14.98;;;;;;;18.96;100.00;-18537.03;5075138;28;20043;-75
2023/08/01 05:27:47;;;;;;;14.57;12.32;;;;;;;18.92;100.00;-18536.22;5093764;28;20134;-76
2023/08/01 05:30:12;;;;;;;15.02;9.82;;;;;;;18.75;100.00;-18531.44;5092492;28;20122;-75
2023/08/01 05:32:40;;;;;;;11.38;10.23;;;;;;;18.81;100.00;-18533.06;5087948;28;22256;-75
2023/08/01 05:35:06;;;;;;;12.05;10.82;;;;;;;18.82;100.00;-18533.34;5087028;28;20077;-76
2023/08/01 05:37:31;;;;;;;11.57;10.32;;;;;;;18.80;100.00;-18532.81;5072624;28;20168;-76
2023/08/01 05:39:57;;;;;;;12.75;11.35;;;;;;;18.65;100.00;-18528.97;5074862;28;20032;-76
2023/08/01 05:42:22;;;;;;;13.48;11.18;;;;;;;18.68;100.00;-18529.81;5073911;28;20608;-76
2023/08/01 05:44:47;;;;;;;13.07;11.50;;;;;;;18.63;100.00;-18528.31;5092103;28;20048;-75
2023/08/01 05:47:13;;;;;;;9.77;8.77;;;;;;;18.48;100.00;-18524.34;5072264;28;20530;-75
2023/08/01 05:49:38;;;;;;;11.27;10.27;;;;;;;18.56;100.00;-18526.38;5091420;28;20395;-77
2023/08/01 05:52:04;;;;;;;13.32;12.00;;;;;;;18.67;100.00;-18529.38;5094747;28;20063;-77
2023/08/01 05:54:29;;;;;;;12.25;11.05;;;;;;;18.62;100.00;-18528.16;5096472;28;20051;-77
2023/08/01 05:56:54;;;;;;;12.70;11.32;;;;;;;18.64;100.00;-18528.56;5096844;28;20032;-75
2023/08/01 05:59:20;;;;;;;11.32;10.20;;;;;;;18.55;100.00;-18526.25;5094398;28;20164;-76
2023/08/01 06:01:45;;;;;;;10.98;10.02;;;;;;;18.69;100.00;-18530.06;5097913;28;20521;-76
2023/08/01 06:04:11;;;;;;;11.40;10.30;;;;;;;18.67;100.00;-18529.53;5094090;28;20063;-75
2023/08/01 06:06:36;;;;;;;11.98;10.73;;;;;;;18.66;100.00;-18529.25;5094796;28;20036;-75
2023/08/01 06:09:02;;;;;;;12.57;11.38;;;;;;;18.70;100.00;-18530.34;5096422;28;20621;-75
2023/08/01 06:11:27;;;;;;;12.73;11.43;;;;;;;18.73;100.00;-18531.03;5094234;28;20043;-77
2023/08/01 06:13:53;;;;;;;13.40;12.00;;;;;;;18.51;100.00;-18525.03;5076515;28;20044;-74
2023/08/01 06:16:18;;;;;;;13.57;12.13;;;;;;;18.44;100.00;-18523.25;5095170;28;20492;-75
2023/08/01 06:18:43;;;;;;;17.33;13.40;;;;;;;18.60;100.00;-18527.63;5096244;28;20501;-76
2023/08/01 06:21:09;;;;;;;17.83;15.15;;;;;;;18.62;100.00;-18528.03;5073935;28;20048;-76
2023/08/01 06:23:34;;;;;;;24.55;17.25;;;;;;;18.75;100.00;-18531.44;5095709;28;20504;-76
2023/08/01 06:26:00;;;;;;;22.40;17.17;;;;;;;18.77;100.00;-18532.13;5092630;28;20137;-76
2023/08/01 06:28:25;;;;;;;23.17;19.25;;;;;;;18.92;100.00;-18536.22;5075824;28;20043;-76
2023/08/01 06:30:50;;;;;;;22.98;19.92;;;;;;;18.95;100.00;-18536.91;5093914;28;20081;-75
2023/08/01 06:33:16;;;;;;;25.83;21.05;;;;;;;19.08;100.00;-18540.44;5075148;28;20522;-75
2023/08/01 06:35:41;;;;;;;23.08;19.20;;;;;;;19.12;100.00;-18541.53;5080684;28;20031;-78
2023/08/01 06:38:06;;;;;;;19.88;17.67;;;;;;;19.20;100.00;-18543.44;5094374;28;20036;-75
2023/08/01 06:40:32;;;;;;;27.55;22.42;;;;;;;19.39;100.00;-18548.59;5099646;28;20108;-76
2023/08/01 06:42:57;;;;;;;23.73;20.50;;;;;;;19.35;100.00;-18547.53;5100176;28;20046;-76
2023/08/01 06:45:22;;;;;;;27.98;21.73;;;;;;;19.45;100.00;-18550.25;5102182;28;20130;-76
2023/08/01 06:47:48;;;;;;;23.45;19.38;;;;;;;19.44;100.00;-18549.84;5101920;28;20040;-75
2023/08/01 06:50:13;;;;;;;24.23;21.35;;;;;;;19.58;100.00;-18553.78;5098674;28;20524;-75
2023/08/01 06:52:39;;;;;;;24.33;21.80;;;;;;;19.68;100.00;-18556.25;5100315;28;20052;-78
2023/08/01 06:55:04;;;;;;;26.90;19.45;;;;;;;19.66;100.00;-18555.69;5100096;28;20035;-75
2023/08/01 06:57:30;;;;;;;23.10;20.63;;;;;;;19.89;100.00;-18561.97;5101852;28;20504;-78
2023/08/01 06:59:55;;;;;;;20.75;16.83;;;;;;;19.79;100.00;-18559.25;5103246;28;20054;-78
2023/08/01 07:02:21;;;;;;;20.73;17.42;;;;;;;19.60;100.00;-18554.34;5101196;28;20081;-77
2023/08/01 07:04:46;;;;;;;23.92;17.85;;;;;;;19.63;100.00;-18555.00;5100186;28;20050;-76
2023/08/01 07:07:11;;;;;;;22.08;15.70;;;;;;;19.29;100.00;-18546.03;5101100;28;20096;-76
2023/08/01 07:09:37;;;;;;;22.10;17.52;;;;;;;19.43;100.00;-18549.69;5099881;28;20171;-78
2023/08/01 07:12:03;;;;;;;28.05;17.27;;;;;;;19.52;100.00;-18552.16;5098919;28;20074;-77
2023/08/01 07:14:28;;;;;;;21.85;16.73;;;;;;;19.53;100.00;-18552.44;5081865;28;20044;-77
2023/08/01 07:16:53;;;;;;;18.75;15.60;;;;;;;19.45;100.00;-18550.25;5101216;28;20051;-76
2023/08/01 07:19:19;;;;;;;21.17;15.85;;;;;;;19.50;100.00;-18551.47;5100568;28;20040;-76
2023/08/01 07:21:46;;;;;;;18.50;16.20;;;;;;;19.58;100.00;-18553.78;5099098;28;20068;-76
2023/08/01 07:24:13;;;;;;;18.70;13.70;;;;;;;19.50;100.00;-18551.47;5099750;28;20048;-76
2023/08/01 07:26:39;;;;;;;21.50;14.75;;;;;;;19.63;100.00;-18554.88;5100392;28;20067;-76
2023/08/01 07:29:04;;;;;;;19.27;15.73;;;;;;;19.81;100.00;-18559.78;5104280;28;20044;-75
2023/08/01 07:31:29;;;;;;;18.00;12.38;;;;;;;19.74;100.00;-18557.88;5102641;28;20043;-77
2023/08/01 07:33:55;;;;;;;17.98;12.32;;;;;;;19.65;100.00;-18555.41;5086057;28;20078;-76
2023/08/01 07:36:21;;;;;;;16.48;11.77;;;;;;;19.66;100.00;-18555.69;5098556;28;20040;-77
2023/08/01 07:38:47;;;;;;;15.30;10.43;;;;;;;19.67;100.00;-18555.97;5099789;28;20044;-78
2023/08/01 07:41:12;;;;;;;18.63;9.95;;;;;;;19.79;100.00;-18559.25;5098818;28;22358;-76
2023/08/01 07:43:37;;;;;;;15.82;10.52;;;;;;;19.82;100.00;-18560.06;5101692;28;21309;-78
2023/08/01 07:46:03;;;;;;;15.32;11.27;;;;;;;19.98;100.00;-18564.28;5099090;28;20036;-77
2023/08/01 07:48:28;;;;;;;17.55;11.80;;;;;;;19.89;100.00;-18561.97;5096234;28;20491;-76
2023/08/01 07:50:54;;;;;;;13.93;10.35;;;;;;;19.79;100.00;-18559.25;5100518;28;20717;-75
2023/08/01 07:53:19;;;;;;;15.25;10.05;;;;;;;19.66;100.00;-18555.69;5098776;28;20046;-75
2023/08/01 07:55:45;;;;;;;20.80;10.70;;;;;;;19.82;100.00;-18560.19;5099987;28;20076;-75
2023/08/01 07:58:10;;;;;;;20.08;13.45;;;;;;;20.03;100.00;-18565.63;5082996;28;20039;-75
2023/08/01 08:00:35;;;;;;;18.55;11.50;;;;;;;20.17;100.00;-18569.31;5100085;28;20391;-76
2023/08/01 08:03:01;;;;;;;15.27;11.57;;;;;;;20.28;100.00;-18572.31;5102339;28;20036;-76
2023/08/01 08:05:26;;;;;;;15.98;9.48;;;;;;;20.35;100.00;-18574.09;5100873;28;20054;-75
2023/08/01 08:07:52;;;;;;;14.60;8.93;;;;;;;20.41;100.00;-18575.84;5102275;28;20074;-75
2023/08/01 08:10:17;;;;;;;16.02;9.18;;;;;;;20.51;100.00;-18578.56;5100648;28;20124;-75
2023/08/01 08:12:44;;;;;;;17.65;7.30;;;;;;;20.39;100.00;-18575.16;5101137;28;20055;-78
2023/08/01 08:15:09;;;;;;;14.57;7.60;;;;;;;20.54;100.00;-18579.25;5083561;28;20840;-75
2023/08/01 08:17:34;;;;;;;14.00;6.93;;;;;;;20.53;100.00;-18578.97;5104246;27;20043;-75
2023/08/01 08:20:00;;;;;;;11.73;6.30;;;;;;;20.41;100.00;-18575.84;5100379;28;20242;-78
2023/08/01 08:22:25;;;;;;;12.45;6.75;;;;;;;20.51;100.00;-18578.56;5101348;28;20379;-75
2023/08/01 08:24:50;;;;;;;11.35;6.55;;;;;;;20.51;100.00;-18578.44;5100363;28;20035;-78
2023/08/01 08:27:16;;;;;;;9.30;5.90;;;;;;;20.77;100.00;-18585.38;5100703;27;20506;-78
2023/08/01 08:29:44;;;;;;;9.90;5.35;;;;;;;20.74;100.00;-18584.56;5104386;28;20043;-78
2023/08/01 08:32:10;;;;;;;9.83;5.00;;;;;;;20.75;100.00;-18584.69;5107709;27;20055;-77
2023/08/01 08:34:35;;;;;;;13.18;5.68;;;;;;;20.70;100.00;-18583.47;5104642;28;20308;-78
2023/08/01 08:37:01;;;;;;;7.25;4.15;;;;;;;20.63;100.00;-18581.69;5105729;27;20516;-78
2023/08/01 08:39:26;;;;;;;7.80;4.22;;;;;;;20.71;100.00;-18583.75;5093347;27;20516;-78
2023/08/01 08:41:52;;;;;;;7.05;4.10;;;;;;;20.71;100.00;-18583.88;5059197;28;20156;-77
2023/08/01 08:44:20;;;;;;;10.93;4.22;;;;;;;20.76;100.00;-18584.97;5052114;28;20036;-77
2023/08/01 08:46:51;;;;;;;8.60;4.40;;;;;;;20.88;100.00;-18588.38;5041808;28;20037;-76
2023/08/01 08:49:21;;;;;;;10.82;3.67;;;;;;;20.75;100.00;-18584.84;5055313;28;20037;-76
2023/08/01 08:51:52;;;;;;;12.02;4.47;;;;;;;21.02;100.00;-18592.03;5056435;28;20045;-78
2023/08/01 08:54:19;;;;;;;7.00;3.75;;;;;;;21.13;100.00;-18594.91;5042956;28;20171;-77
2023/08/01 08:56:45;;;;;;;7.03;3.50;;;;;;;21.33;100.00;-18600.19;5050514;28;20072;-77
2023/08/01 08:59:11;;;;;;;12.35;3.97;;;;;;;21.32;100.00;-18600.06;5050972;28;20549;-76
2023/08/01 09:01:37;;;;;;;7.13;3.53;;;;;;;21.48;100.00;-18604.16;5034423;28;20097;-78
2023/08/01 09:04:06;;;;;;;7.03;3.28;;;;;;;21.59;100.00;-18607.28;5048546;28;20232;-78
2023/08/01 09:06:37;;;;;;;8.32;2.90;;;;;;;21.72;100.00;-18610.53;5052303;28;20767;-77
2023/08/01 09:09:10;;;;;;;5.15;2.40;;;;;;;21.71;100.00;-18610.41;5029718;28;20332;-77
2023/08/01 09:11:59;;;;;;;4.68;2.28;;;;;;;21.74;100.00;-18611.22;5044732;28;20200;-78
2023/08/01 09:14:24;;;;;;;7.40;2.97;;;;;;;21.92;100.00;-18615.97;5090552;28;20144;-77
2023/08/01 09:16:50;;;;;;;15.88;3.70;;;;;;;21.70;100.00;-18610.13;5101476;28;20073;-78
2023/08/01 09:19:19;;;;;;;8.07;2.75;;;;;;;21.43;100.00;-18602.78;5099976;28;20043;-77
2023/08/01 09:21:45;;;;;;;6.75;3.10;;;;;;;21.30;100.00;-18599.53;5102044;28;20046;-77
2023/08/01 09:24:16;;;;;;;7.50;3.65;;;;;;;21.15;100.00;-18595.44;5101186;28;20040;-77
2023/08/01 09:26:42;;;;;;;7.43;3.58;;;;;;;21.03;100.00;-18592.31;5101170;28;20047;-78
2023/08/01 09:29:08;;;;;;;7.80;4.25;;;;;;;21.07;100.00;-18593.41;5100613;28;20032;-77
2023/08/01 09:31:35;;;;;;;11.05;5.22;;;;;;;21.13;100.00;-18595.03;5092799;28;20673;-77
2023/08/01 09:34:05;;;;;;;11.60;5.07;;;;;;;20.67;100.00;-18582.66;5101320;28;20407;-77
2023/08/01 09:36:31;;;;;;;9.02;5.53;;;;;;;20.69;100.00;-18583.19;5100610;28;20345;-77
2023/08/01 09:39:04;;;;;;;8.32;4.43;;;;;;;20.25;100.00;-18571.50;5081129;28;20080;-77
2023/08/01 09:41:30;;;;;;;10.10;4.53;;;;;;;20.17;100.00;-18569.31;5094943;28;20100;-77
2023/08/01 09:43:56;;;;;;;6.50;3.70;;;;;;;19.88;100.00;-18561.69;5100805;27;20846;-77
2023/08/01 09:46:22;;;;;;;8.55;4.10;;;;;;;19.93;100.00;-18563.06;5098609;28;20046;-78
2023/08/01 09:48:47;;;;;;;10.25;4.68;;;;;;;20.03;100.00;-18565.78;5098727;28;20123;-77
2023/08/01 09:51:17;;;;;;;9.98;5.35;;;;;;;19.99;100.00;-18564.56;5098053;27;20039;-77
2023/08/01 09:54:03;;;;;;;12.48;6.32;;;;;;;20.08;100.00;-18566.88;5098848;28;20054;-77
2023/08/01 09:56:28;;;;;;;12.20;8.00;;;;;;;20.18;100.00;-18569.59;5098372;28;20055;-78
2023/08/01 09:58:55;;;;;;;11.75;10.57;;;;;;;20.31;100.00;-18573.13;5099819;28;20044;-77
2023/08/01 10:01:23;;;;;;;10.88;9.77;;;;;;;20.52;100.00;-18578.72;5097890;28;20096;-78
2023/08/01 10:03:50;;;;;;;15.38;10.80;;;;;;;20.61;100.00;-18581.03;5101719;28;20514;-77
2023/08/01 10:06:23;;;;;;;13.60;11.20;;;;;;;20.76;100.00;-18585.09;5098139;28;20099;-77
2023/08/01 10:08:50;;;;;;;11.23;6.63;;;;;;;20.76;100.00;-18585.09;5100283;28;20709;-80
2023/08/01 10:11:20;;;;;;;10.25;5.97;;;;;;;20.68;100.00;-18583.06;5101624;27;20052;-78
2023/08/01 10:13:46;;;;;;;9.88;6.43;;;;;;;20.83;100.00;-18587.00;5103032;28;20131;-78
2023/08/01 10:16:13;;;;;;;9.73;4.78;;;;;;;20.65;100.00;-18582.25;5091855;28;20031;-79
2023/08/01 10:18:39;;;;;;;10.00;6.72;;;;;;;20.85;100.00;-18587.41;5105558;27;20114;-78
2023/08/01 10:21:06;;;;;;;6.97;5.20;;;;;;;20.71;100.00;-18583.75;5104868;27;20461;-78
2023/08/01 10:23:33;;;;;;;11.05;6.25;;;;;;;20.89;100.00;-18588.63;5105013;27;20048;-78
2023/08/01 10:26:01;;;;;;;9.80;7.32;;;;;;;21.00;100.00;-18591.34;5101340;28;20075;-77
2023/08/01 10:28:39;;;;;;;10.27;5.35;;;;;;;21.16;100.00;-18595.84;5098679;27;20104;-77
2023/08/01 10:31:13;;;;;;;9.77;5.57;;;;;;;21.20;100.00;-18596.78;5098935;28;20047;-78
2023/08/01 10:33:41;;;;;;;5.25;3.78;;;;;;;21.00;100.00;-18591.50;5097798;27;20039;-77
2023/08/01 10:36:32;;;;;;;8.25;3.70;;;;;;;21.05;100.00;-18592.72;5099131;27;20101;-77
2023/08/01 10:39:00;;;;;;;8.43;3.88;;;;;;;21.05;100.00;-18592.84;5093001;27;20055;-78
2023/08/01 10:41:30;;;;;;;9.32;3.60;;;;;;;21.16;100.00;-18595.84;5098386;27;20131;-79
2023/08/01 10:44:12;;;;;;;9.55;3.78;;;;;;;21.22;100.00;-18597.34;5100198;27;20051;-77
2023/08/01 10:46:48;;;;;;;7.13;3.70;;;;;;;21.57;100.00;-18606.72;5080684;28;20170;-78
2023/08/01 10:49:14;;;;;;;7.90;3.75;;;;;;;21.99;100.00;-18617.72;5100624;27;20048;-77
2023/08/01 10:51:40;;;;;;;7.00;3.20;;;;;;;22.07;100.00;-18620.03;5100619;28;20054;-78
2023/08/01 10:54:05;;;;;;;5.95;3.00;;;;;;;22.37;100.00;-18627.78;5099826;27;20039;-78
2023/08/01 10:56:31;;;;;;;6.35;2.40;;;;;;;22.60;100.00;-18634.03;5102123;27;20048;-78
2023/08/01 10:58:58;;;;;;;5.20;2.22;;;;;;;22.52;100.00;-18631.84;5101347;27;20084;-78
2023/08/01 11:01:23;;;;;;;5.68;1.65;;;;;;;22.54;100.00;-18632.41;5098867;27;20051;-78
2023/08/01 11:03:48;;;;;;;4.72;1.67;;;;;;;22.25;100.00;-18624.66;5100122;27;20066;-78